createdAt,value
2023-02-16T00:01:54.696Z,5.70
2023-02-16T00:04:24.491Z,5.70
2023-02-16T00:06:52.592Z,5.70
2023-02-16T00:09:20.932Z,5.70
2023-02-16T00:12:07.165Z,5.70
2023-02-16T00:14:35.928Z,5.70
2023-02-16T00:17:03.434Z,5.60
2023-02-16T00:19:36.071Z,5.60
2023-02-16T00:22:03.959Z,5.60
2023-02-16T00:24:30.747Z,5.60
2023-02-16T00:26:58.466Z,5.60
2023-02-16T00:29:29.450Z,5.60
2023-02-16T00:31:57.325Z,5.60
2023-02-16T00:34:36.483Z,5.50
2023-02-16T00:37:06.449Z,5.60
2023-02-16T00:39:34.064Z,5.60
2023-02-16T00:42:21.727Z,5.60
2023-02-16T00:44:50.613Z,5.60
2023-02-16T00:47:25.967Z,5.60
2023-02-16T00:49:54.408Z,5.60
2023-02-16T00:52:37.689Z,5.60
2023-02-16T00:55:08.557Z,5.60
2023-02-16T00:57:40.643Z,5.60
2023-02-16T01:00:16.421Z,5.60
2023-02-16T01:02:45.226Z,5.60
2023-02-16T01:05:12.756Z,5.60
2023-02-16T01:07:58.023Z,5.50
2023-02-16T01:10:45.270Z,5.60
2023-02-16T01:13:12.370Z,5.50
2023-02-16T01:15:39.668Z,5.50
2023-02-16T01:18:06.897Z,5.40
2023-02-16T01:20:36.153Z,5.50
2023-02-16T01:23:03.133Z,5.50
2023-02-16T01:25:30.000Z,5.90
2023-02-16T01:27:56.643Z,5.50
2023-02-16T01:30:25.294Z,5.50
2023-02-16T01:32:52.513Z,5.50
2023-02-16T01:35:25.154Z,5.50
2023-02-16T01:37:51.824Z,5.50
2023-02-16T01:40:33.448Z,5.50
2023-02-16T01:43:32.575Z,5.50
2023-02-16T01:46:07.903Z,5.50
2023-02-16T01:48:35.047Z,5.50
2023-02-16T01:51:13.805Z,5.50
2023-02-16T01:53:45.729Z,5.40
2023-02-16T01:56:35.452Z,5.40
2023-02-16T01:59:10.947Z,5.40
2023-02-16T02:01:44.815Z,5.50
2023-02-16T02:04:40.645Z,5.40
2023-02-16T02:07:08.865Z,5.40
2023-02-16T02:09:45.104Z,5.30
2023-02-16T02:12:14.898Z,5.30
2023-02-16T02:14:42.636Z,5.20
2023-02-16T02:17:14.585Z,5.10
2023-02-16T02:20:05.422Z,5.20
2023-02-16T02:23:24.763Z,5.20
2023-02-16T02:26:06.609Z,5.30
2023-02-16T02:28:59.507Z,5.20
2023-02-16T02:31:44.963Z,5.20
2023-02-16T02:34:29.782Z,5.20
2023-02-16T02:37:05.676Z,5.10
2023-02-16T02:39:50.786Z,5.20
2023-02-16T02:42:33.032Z,5.20
2023-02-16T02:45:08.250Z,5.10
2023-02-16T02:47:40.260Z,5.10
2023-02-16T02:50:32.121Z,5.10
2023-02-16T02:53:03.278Z,5.10
2023-02-16T02:55:51.165Z,5.10
2023-02-16T02:58:40.961Z,5.10
2023-02-16T03:01:08.887Z,5.10
2023-02-16T03:03:42.352Z,5.10
2023-02-16T03:06:19.162Z,5.10
2023-02-16T03:08:49.846Z,5.10
2023-02-16T03:11:39.910Z,5.10
2023-02-16T03:14:17.688Z,5.10
2023-02-16T03:17:11.340Z,5.10
2023-02-16T03:20:01.993Z,5.00
2023-02-16T03:22:48.455Z,5.00
2023-02-16T03:25:34.533Z,5.00
2023-02-16T03:28:22.915Z,5.00
2023-02-16T03:30:51.340Z,5.00
2023-02-16T03:33:18.717Z,4.90
2023-02-16T03:35:46.324Z,4.90
2023-02-16T03:38:13.188Z,4.90
2023-02-16T03:40:41.362Z,4.90
2023-02-16T03:43:08.982Z,4.90
2023-02-16T03:45:39.709Z,4.90
2023-02-16T03:48:06.988Z,5.00
2023-02-16T03:50:33.811Z,5.00
2023-02-16T03:53:09.579Z,4.90
2023-02-16T03:55:44.174Z,5.00
2023-02-16T03:58:13.505Z,5.00
2023-02-16T04:00:40.578Z,4.90
2023-02-16T04:03:11.166Z,4.70
2023-02-16T04:05:38.598Z,4.90
2023-02-16T04:08:06.194Z,4.90
2023-02-16T04:10:33.085Z,4.90
2023-02-16T04:13:00.255Z,4.90
2023-02-16T04:15:28.879Z,4.90
2023-02-16T04:17:56.145Z,4.90
2023-02-16T04:20:27.593Z,4.90
2023-02-16T04:22:54.409Z,4.90
2023-02-16T04:25:30.496Z,4.80
2023-02-16T04:27:57.405Z,4.70
2023-02-16T04:30:27.919Z,4.70
2023-02-16T04:32:55.142Z,4.80
2023-02-16T04:35:23.065Z,4.80
2023-02-16T04:37:49.888Z,4.80
2023-02-16T04:40:17.589Z,4.90
2023-02-16T04:42:45.522Z,4.80
2023-02-16T04:45:13.278Z,4.80
2023-02-16T04:47:40.067Z,4.80
2023-02-16T04:50:07.728Z,4.80
2023-02-16T04:52:34.459Z,4.80
2023-02-16T04:55:01.111Z,4.80
2023-02-16T04:57:28.175Z,4.80
2023-02-16T04:59:55.236Z,4.90
2023-02-16T05:02:22.359Z,4.90
2023-02-16T05:04:49.138Z,4.80
2023-02-16T05:07:16.083Z,4.80
2023-02-16T05:09:42.709Z,4.80
2023-02-16T05:12:31.343Z,4.80
2023-02-16T05:14:57.968Z,4.90
2023-02-16T05:17:26.689Z,4.80
2023-02-16T05:20:01.731Z,4.70
2023-02-16T05:22:28.963Z,4.70
2023-02-16T05:24:55.659Z,4.70
2023-02-16T05:27:24.833Z,4.70
2023-02-16T05:29:51.796Z,4.70
2023-02-16T05:32:18.868Z,4.70
2023-02-16T05:34:45.677Z,4.70
2023-02-16T05:37:14.555Z,4.70
2023-02-16T05:39:41.417Z,4.70
2023-02-16T05:42:08.351Z,4.70
2023-02-16T05:44:35.010Z,4.70
2023-02-16T05:47:01.977Z,4.60
2023-02-16T05:49:28.815Z,4.60
2023-02-16T05:51:55.612Z,4.60
2023-02-16T05:54:22.393Z,4.60
2023-02-16T05:56:52.221Z,4.70
2023-02-16T05:59:19.576Z,4.70
2023-02-16T06:01:50.967Z,4.70
2023-02-16T06:04:18.476Z,4.70
2023-02-16T06:06:45.189Z,4.70
2023-02-16T06:09:12.062Z,4.70
2023-02-16T06:11:38.856Z,4.80
2023-02-16T06:14:18.123Z,4.70
2023-02-16T06:16:47.742Z,4.80
2023-02-16T06:19:17.458Z,4.80
2023-02-16T06:21:44.369Z,4.80
2023-02-16T06:24:12.867Z,4.70
2023-02-16T06:26:39.728Z,4.70
2023-02-16T06:29:06.628Z,4.70
2023-02-16T06:31:36.260Z,4.80
2023-02-16T06:34:04.181Z,4.80
2023-02-16T06:36:31.344Z,4.80
2023-02-16T06:38:58.125Z,4.70
2023-02-16T06:41:57.005Z,4.80
2023-02-16T06:44:23.825Z,4.80
2023-02-16T06:46:50.589Z,4.80
2023-02-16T06:49:19.837Z,4.80
2023-02-16T06:51:48.300Z,4.80
2023-02-16T06:54:15.946Z,4.80
2023-02-16T06:56:42.632Z,4.80
2023-02-16T06:59:12.861Z,4.80
2023-02-16T07:01:39.748Z,4.90
2023-02-16T07:04:06.405Z,4.90
2023-02-16T07:06:33.027Z,4.90
2023-02-16T07:09:00.218Z,4.90
2023-02-16T07:11:26.850Z,4.90
2023-02-16T07:13:54.255Z,4.90
2023-02-16T07:16:21.652Z,4.90
2023-02-16T07:18:48.658Z,4.90
2023-02-16T07:21:15.631Z,5.00
2023-02-16T07:23:42.368Z,5.00
2023-02-16T07:26:09.783Z,5.00
2023-02-16T07:28:36.480Z,5.00
2023-02-16T07:31:08.454Z,5.00
2023-02-16T07:33:35.273Z,5.00
2023-02-16T07:36:02.094Z,5.10
2023-02-16T07:38:32.746Z,5.10
2023-02-16T07:40:59.808Z,5.10
2023-02-16T07:43:27.026Z,5.10
2023-02-16T07:45:54.277Z,5.20
2023-02-16T07:48:21.014Z,5.20
2023-02-16T07:50:48.990Z,5.20
2023-02-16T07:53:18.821Z,5.20
2023-02-16T07:55:46.605Z,5.20
2023-02-16T07:58:27.628Z,5.30
2023-02-16T08:01:13.505Z,5.30
2023-02-16T08:03:41.653Z,5.30
2023-02-16T08:06:09.015Z,5.30
2023-02-16T08:08:37.187Z,5.40
2023-02-16T08:11:23.822Z,5.40
2023-02-16T08:13:51.717Z,5.50
2023-02-16T08:16:23.866Z,5.50
2023-02-16T08:18:51.244Z,5.50
2023-02-16T08:21:23.768Z,5.50
2023-02-16T08:24:06.477Z,5.50
2023-02-16T08:26:44.892Z,5.60
2023-02-16T08:29:13.423Z,5.60
2023-02-16T08:31:41.821Z,5.70
2023-02-16T08:34:11.064Z,5.70
2023-02-16T08:36:40.296Z,5.70
2023-02-16T08:39:17.189Z,5.70
2023-02-16T08:41:45.791Z,5.80
2023-02-16T08:44:13.860Z,5.80
2023-02-16T08:46:42.990Z,5.90
2023-02-16T08:49:11.409Z,6.00
2023-02-16T08:51:42.601Z,6.00
2023-02-16T08:54:10.207Z,6.00
2023-02-16T08:56:37.150Z,6.00
2023-02-16T08:59:03.916Z,6.10
2023-02-16T09:01:32.925Z,6.10
2023-02-16T09:03:59.798Z,6.10
2023-02-16T09:06:26.754Z,6.20
2023-02-16T09:08:55.553Z,6.20
2023-02-16T09:11:24.018Z,6.20
2023-02-16T09:13:51.376Z,6.30
2023-02-16T09:16:22.428Z,6.30
2023-02-16T09:18:49.738Z,6.30
2023-02-16T09:21:24.856Z,6.40
2023-02-16T09:23:54.398Z,6.40
2023-02-16T09:26:23.800Z,6.40
2023-02-16T09:28:51.364Z,6.50
2023-02-16T09:31:25.561Z,6.60
2023-02-16T09:33:56.231Z,6.70
2023-02-16T09:36:24.614Z,6.80
2023-02-16T09:38:52.680Z,6.80
2023-02-16T09:41:45.981Z,6.90
2023-02-16T09:44:33.666Z,6.80
2023-02-16T09:47:05.025Z,6.90
2023-02-16T09:49:41.441Z,7.00
2023-02-16T09:52:37.225Z,7.00
2023-02-16T09:55:18.949Z,7.10
2023-02-16T09:58:04.376Z,7.30
2023-02-16T10:00:34.233Z,7.30
2023-02-16T10:03:03.591Z,7.40
2023-02-16T10:05:44.884Z,7.40
2023-02-16T10:08:16.795Z,7.50
2023-02-16T10:10:53.459Z,7.50
2023-02-16T10:13:34.858Z,7.50
2023-02-16T10:16:05.697Z,7.50
2023-02-16T10:18:38.404Z,7.50
2023-02-16T10:21:16.272Z,7.60
2023-02-16T10:23:55.637Z,7.60
2023-02-16T10:26:32.019Z,7.70
2023-02-16T10:29:05.883Z,7.60
2023-02-16T10:31:51.064Z,7.60
2023-02-16T10:34:43.023Z,7.70
2023-02-16T10:37:25.546Z,7.70
2023-02-16T10:39:58.883Z,7.70
2023-02-16T10:42:37.294Z,7.70
2023-02-16T10:45:27.536Z,7.70
2023-02-16T10:47:55.051Z,7.70
2023-02-16T10:50:23.262Z,7.70
2023-02-16T10:52:52.399Z,7.70
2023-02-16T10:55:19.053Z,7.70
2023-02-16T10:57:56.523Z,7.90
2023-02-16T11:00:52.412Z,7.90
2023-02-16T11:03:23.109Z,7.90
2023-02-16T11:05:50.069Z,8.00
2023-02-16T11:08:17.694Z,8.10
2023-02-16T11:10:52.697Z,8.20
2023-02-16T11:13:28.305Z,8.20
2023-02-16T11:15:58.362Z,8.20
2023-02-16T11:18:47.133Z,8.20
2023-02-16T11:21:14.217Z,8.20
2023-02-16T11:23:57.750Z,8.20
2023-02-16T11:26:26.957Z,8.30
2023-02-16T11:28:53.844Z,8.40
2023-02-16T11:31:36.072Z,8.30
2023-02-16T11:34:06.515Z,8.40
2023-02-16T11:36:34.785Z,8.40
2023-02-16T11:39:06.013Z,8.40
2023-02-16T11:41:33.585Z,8.40
2023-02-16T11:44:02.707Z,8.40
2023-02-16T11:46:39.843Z,8.50
2023-02-16T11:49:30.204Z,8.50
2023-02-16T11:51:58.477Z,8.50
2023-02-16T11:54:25.350Z,8.40
2023-02-16T11:57:09.568Z,8.40
2023-02-16T11:59:38.822Z,8.40
2023-02-16T12:02:29.694Z,8.50
2023-02-16T12:05:02.441Z,8.50
2023-02-16T12:07:32.432Z,8.60
2023-02-16T12:10:12.102Z,8.60
2023-02-16T12:13:03.691Z,8.50
2023-02-16T12:15:54.927Z,8.50
2023-02-16T12:18:37.664Z,8.40
2023-02-16T12:21:35.995Z,8.50
2023-02-16T12:24:35.023Z,8.50
2023-02-16T12:27:07.305Z,8.50
2023-02-16T12:30:03.693Z,8.40
2023-02-16T12:32:37.694Z,8.50
2023-02-16T12:35:20.014Z,8.60
2023-02-16T12:37:55.554Z,8.50
2023-02-16T12:40:46.944Z,8.50
2023-02-16T12:43:40.077Z,8.40
2023-02-16T12:46:18.802Z,8.40
2023-02-16T12:48:49.328Z,8.40
2023-02-16T12:51:23.678Z,8.40
2023-02-16T12:54:14.635Z,8.50
2023-02-16T12:56:52.406Z,8.50
2023-02-16T12:59:39.074Z,8.40
2023-02-16T13:02:15.882Z,8.40
2023-02-16T13:05:13.645Z,8.30
2023-02-16T13:07:43.488Z,8.30
2023-02-16T13:10:32.881Z,8.30
2023-02-16T13:13:04.850Z,8.30
2023-02-16T13:15:34.162Z,8.40
2023-02-16T13:18:06.756Z,8.30
2023-02-16T13:20:33.713Z,8.40
2023-02-16T13:23:03.230Z,8.50
2023-02-16T13:25:49.619Z,8.50
2023-02-16T13:28:42.908Z,8.50
2023-02-16T13:31:29.314Z,8.50
2023-02-16T13:34:13.798Z,8.50
2023-02-16T13:37:17.959Z,8.50
2023-02-16T13:40:04.805Z,8.60
2023-02-16T13:42:54.020Z,8.50
2023-02-16T13:45:32.381Z,8.40
2023-02-16T13:48:00.281Z,8.40
2023-02-16T13:50:29.227Z,8.50
2023-02-16T13:52:58.577Z,8.60
2023-02-16T13:55:34.770Z,8.60
2023-02-16T13:58:04.399Z,8.60
2023-02-16T14:00:35.725Z,8.60
2023-02-16T14:03:13.311Z,8.60
2023-02-16T14:05:42.598Z,8.60
2023-02-16T14:08:25.496Z,8.60
2023-02-16T14:10:55.498Z,8.80
2023-02-16T14:13:37.761Z,8.70
2023-02-16T14:16:11.642Z,8.70
2023-02-16T14:18:57.147Z,8.70
2023-02-16T14:21:47.958Z,8.60
2023-02-16T14:24:36.135Z,8.60
2023-02-16T14:27:10.625Z,8.60
2023-02-16T14:29:56.718Z,8.60
2023-02-16T14:32:38.530Z,8.70
2023-02-16T14:35:13.690Z,8.70
2023-02-16T14:37:53.180Z,8.70
2023-02-16T14:40:40.280Z,8.60
2023-02-16T14:43:20.385Z,8.70
2023-02-16T14:45:58.996Z,8.70
2023-02-16T14:48:50.540Z,8.70
2023-02-16T14:51:35.005Z,8.70
2023-02-16T14:54:27.027Z,8.70
2023-02-16T14:57:14.751Z,8.70
2023-02-16T15:00:04.390Z,8.80
2023-02-16T15:02:38.307Z,8.70
2023-02-16T15:05:33.086Z,8.70
2023-02-16T15:08:17.493Z,8.70
2023-02-16T15:10:47.449Z,8.70
2023-02-16T15:13:22.716Z,8.70
2023-02-16T15:15:58.591Z,8.70
2023-02-16T15:18:40.621Z,8.60
2023-02-16T15:21:20.722Z,8.60
2023-02-16T15:23:50.581Z,8.60
2023-02-16T15:26:28.174Z,8.60
2023-02-16T15:29:19.222Z,8.60
2023-02-16T15:31:47.536Z,8.50
2023-02-16T15:34:29.078Z,8.60
2023-02-16T15:36:55.968Z,8.50
2023-02-16T15:39:42.987Z,8.60
2023-02-16T15:42:23.623Z,8.60
2023-02-16T15:44:50.757Z,8.60
2023-02-16T15:47:23.291Z,8.60
2023-02-16T15:49:51.978Z,8.60
2023-02-16T15:52:21.822Z,8.50
2023-02-16T15:54:49.673Z,8.60
2023-02-16T15:57:37.169Z,8.60
2023-02-16T16:00:21.920Z,8.60
2023-02-16T16:02:51.508Z,8.60
2023-02-16T16:05:22.776Z,8.60
2023-02-16T16:07:50.107Z,8.60
2023-02-16T16:10:36.231Z,8.70
2023-02-16T16:13:12.689Z,8.50
2023-02-16T16:15:45.114Z,8.60
2023-02-16T16:18:39.989Z,8.60
2023-02-16T16:21:34.220Z,8.60
2023-02-16T16:24:05.743Z,8.70
2023-02-16T16:26:59.769Z,8.60
2023-02-16T16:30:09.824Z,8.50
2023-02-16T16:32:38.544Z,8.60
2023-02-16T16:35:40.850Z,8.60
2023-02-16T16:38:29.430Z,8.60
2023-02-16T16:40:59.078Z,8.60
2023-02-16T16:43:31.932Z,8.60
2023-02-16T16:46:17.442Z,8.60
2023-02-16T16:48:47.461Z,8.60
2023-02-16T16:51:41.320Z,8.50
2023-02-16T16:54:33.229Z,8.40
2023-02-16T16:57:00.125Z,8.40
2023-02-16T16:59:28.646Z,8.40
2023-02-16T17:01:55.356Z,8.40
2023-02-16T17:04:23.856Z,8.50
2023-02-16T17:06:50.574Z,8.40
2023-02-16T17:09:17.501Z,8.40
2023-02-16T17:11:44.507Z,8.40
2023-02-16T17:14:20.234Z,8.40
2023-02-16T17:16:54.467Z,8.40
2023-02-16T17:19:27.529Z,8.30
2023-02-16T17:21:54.830Z,8.30
2023-02-16T17:24:21.910Z,8.30
2023-02-16T17:26:52.728Z,8.30
2023-02-16T17:29:19.477Z,8.40
2023-02-16T17:31:49.451Z,8.30
2023-02-16T17:34:16.331Z,8.30
2023-02-16T17:36:43.112Z,8.30
2023-02-16T17:39:09.740Z,8.30
2023-02-16T17:41:36.445Z,8.40
2023-02-16T17:44:04.180Z,8.40
2023-02-16T17:46:31.865Z,8.30
2023-02-16T17:48:58.750Z,8.30
2023-02-16T17:51:26.397Z,8.30
2023-02-16T17:53:53.582Z,8.30
2023-02-16T17:56:23.279Z,8.40
2023-02-16T17:58:50.097Z,8.40
2023-02-16T18:01:18.284Z,8.30
2023-02-16T18:03:46.054Z,8.40
2023-02-16T18:06:18.258Z,8.40
2023-02-16T18:08:45.141Z,8.40
2023-02-16T18:11:12.402Z,8.30
2023-02-16T18:13:39.769Z,8.30
2023-02-16T18:16:08.272Z,8.30
2023-02-16T18:18:38.862Z,8.30
2023-02-16T18:21:06.433Z,8.30
2023-02-16T18:23:33.407Z,8.30
2023-02-16T18:26:00.146Z,8.30
2023-02-16T18:28:30.911Z,8.30
2023-02-16T18:31:00.455Z,8.30
2023-02-16T18:33:27.295Z,8.20
2023-02-16T18:35:56.318Z,8.30
2023-02-16T18:38:23.428Z,8.20
2023-02-16T18:40:51.538Z,8.20
2023-02-16T18:43:18.211Z,8.20
2023-02-16T18:45:45.098Z,8.20
2023-02-16T18:48:11.985Z,8.20
2023-02-16T18:50:38.878Z,8.20
2023-02-16T18:53:06.168Z,8.20
2023-02-16T18:55:33.084Z,8.20
2023-02-16T18:58:00.868Z,8.20
2023-02-16T19:00:28.681Z,8.20
2023-02-16T19:02:56.871Z,8.10
2023-02-16T19:05:24.709Z,8.10
2023-02-16T19:07:51.772Z,8.10
2023-02-16T19:10:19.724Z,8.10
2023-02-16T19:12:46.376Z,8.10
2023-02-16T19:15:13.843Z,8.10
2023-02-16T19:17:40.640Z,8.10
2023-02-16T19:20:09.936Z,8.10
2023-02-16T19:22:37.248Z,8.20
2023-02-16T19:25:07.870Z,8.20
2023-02-16T19:27:34.985Z,8.30
2023-02-16T19:30:01.898Z,8.20
2023-02-16T19:32:29.079Z,8.20
2023-02-16T19:34:56.428Z,8.20
2023-02-16T19:37:23.112Z,8.30
2023-02-16T19:39:49.912Z,8.30
2023-02-16T19:42:17.922Z,9.10
2023-02-16T19:44:44.660Z,8.30
2023-02-16T19:47:11.578Z,8.30
2023-02-16T19:49:38.628Z,8.30
2023-02-16T19:52:07.524Z,8.30
2023-02-16T19:54:36.798Z,8.30
2023-02-16T19:57:07.048Z,8.30
2023-02-16T19:59:33.878Z,8.30
2023-02-16T20:02:01.246Z,8.30
2023-02-16T20:04:28.660Z,8.30
2023-02-16T20:06:56.347Z,8.30
2023-02-16T20:09:26.867Z,8.30
2023-02-16T20:11:53.688Z,8.30
2023-02-16T20:14:20.595Z,8.20
2023-02-16T20:16:49.468Z,8.30
2023-02-16T20:19:17.761Z,8.30
2023-02-16T20:21:46.345Z,8.30
2023-02-16T20:24:14.676Z,8.30
2023-02-16T20:26:45.015Z,8.30
2023-02-16T20:29:15.047Z,8.40
2023-02-16T20:31:47.734Z,8.40
2023-02-16T20:34:15.056Z,8.30
2023-02-16T20:36:43.282Z,8.40
2023-02-16T20:39:10.111Z,8.30
2023-02-16T20:41:37.218Z,8.30
2023-02-16T20:44:04.673Z,8.40
2023-02-16T20:46:32.244Z,8.40
2023-02-16T20:48:58.930Z,8.30
2023-02-16T20:51:26.153Z,8.30
2023-02-16T20:53:52.821Z,8.30
2023-02-16T20:56:22.000Z,8.30
2023-02-16T20:58:50.447Z,8.30
2023-02-16T21:01:26.163Z,8.30
2023-02-16T21:03:54.772Z,8.30
2023-02-16T21:06:22.064Z,8.20
2023-02-16T21:08:48.952Z,8.20
2023-02-16T21:11:16.267Z,8.20
2023-02-16T21:13:43.945Z,8.30
2023-02-16T21:16:13.159Z,8.30
2023-02-16T21:18:43.772Z,8.30
2023-02-16T21:21:15.332Z,8.40
2023-02-16T21:23:44.549Z,8.40
2023-02-16T21:26:11.864Z,8.40
2023-02-16T21:28:39.181Z,8.40
2023-02-16T21:31:09.766Z,8.40
2023-02-16T21:33:37.563Z,8.30
2023-02-16T21:36:07.481Z,8.30
2023-02-16T21:38:35.897Z,8.30
2023-02-16T21:41:25.948Z,8.30
2023-02-16T21:44:13.770Z,8.30
2023-02-16T21:46:45.589Z,8.40
2023-02-16T21:49:17.818Z,8.30
2023-02-16T21:51:45.708Z,8.40
2023-02-16T21:54:16.143Z,8.40
2023-02-16T21:56:51.022Z,8.40
2023-02-16T21:59:19.654Z,8.40
2023-02-16T22:01:51.691Z,8.40
2023-02-16T22:04:21.950Z,8.40
2023-02-16T22:06:50.698Z,8.40
2023-02-16T22:09:20.717Z,8.30
2023-02-16T22:11:50.635Z,8.40
2023-02-16T22:14:18.235Z,8.80
2023-02-16T22:16:46.849Z,8.40
2023-02-16T22:19:15.806Z,8.40
2023-02-16T22:21:46.624Z,8.40
2023-02-16T22:24:14.992Z,8.40
2023-02-16T22:26:42.516Z,8.40
2023-02-16T22:29:11.881Z,8.40
2023-02-16T22:31:39.140Z,8.40
2023-02-16T22:34:10.323Z,8.30
2023-02-16T22:36:38.964Z,8.40
2023-02-16T22:39:06.290Z,8.40
2023-02-16T22:41:33.489Z,8.40
2023-02-16T22:44:00.226Z,8.40
2023-02-16T22:46:28.297Z,8.50
2023-02-16T22:48:58.717Z,8.50
2023-02-16T22:51:28.986Z,8.50
2023-02-16T22:53:57.807Z,8.50
2023-02-16T22:56:24.461Z,8.50
2023-02-16T22:58:51.051Z,8.50
2023-02-16T23:01:20.482Z,8.60
2023-02-16T23:03:57.247Z,8.50
2023-02-16T23:06:35.709Z,8.60
2023-02-16T23:09:08.213Z,8.60
2023-02-16T23:11:36.346Z,8.60
2023-02-16T23:14:03.437Z,8.60
2023-02-16T23:16:30.084Z,8.60
2023-02-16T23:18:59.133Z,8.60
2023-02-16T23:21:28.464Z,8.60
2023-02-16T23:23:55.868Z,8.50
2023-02-16T23:26:25.918Z,8.60
2023-02-16T23:28:55.108Z,8.60
2023-02-16T23:31:23.217Z,8.60
2023-02-16T23:33:50.657Z,8.60
2023-02-16T23:36:17.390Z,8.60
2023-02-16T23:38:44.324Z,9.00
2023-02-16T23:41:12.982Z,8.70
2023-02-16T23:43:39.822Z,8.70
2023-02-16T23:46:07.175Z,8.80
2023-02-16T23:48:34.832Z,8.70
2023-02-16T23:59:49.019Z,8.70
